TimeAEDT,TemperatureF,Dew PointF,Humidity,Sea Level PressureIn,VisibilityMPH,Wind Direction,Wind SpeedMPH,Gust SpeedMPH,PrecipitationIn,Events,Conditions,WindDirDegrees,DateUTC
12:00 AM,59,55,84,30.04,,Calm,Calm,,,,,,2012-10-30 13:00:00
12:00 AM,59.0,55.4,88,30.01,6.2,Calm,Calm,-,N/A,,Unknown,0,2012-10-30 13:00:00
12:30 AM,60.8,55.4,82,30.01,6.2,NNE,4.6,-,N/A,,Unknown,30,2012-10-30 13:30:00
1:00 AM,59.0,55.4,88,30.01,6.2,Calm,Calm,-,N/A,,Unknown,0,2012-10-30 14:00:00
1:30 AM,59.0,55.4,88,30.01,6.2,NNE,3.5,-,N/A,,Unknown,30,2012-10-30 14:30:00
2:00 AM,60,55,80,30.00,,NNE,5.8,,,,,20,2012-10-30 15:00:00
2:00 AM,60.8,55.4,82,29.98,6.2,NNE,5.8,-,N/A,,Unknown,20,2012-10-30 15:00:00
2:30 AM,59.0,55.4,88,29.98,6.2,North,4.6,-,N/A,,Unknown,10,2012-10-30 15:30:00
3:00 AM,58,55,87,30.00,,North,4.6,,,,,0,2012-10-30 16:00:00
3:00 AM,59.0,55.4,88,29.98,6.2,North,4.6,-,N/A,,Unknown,360,2012-10-30 16:00:00
3:30 AM,59.0,55.4,88,29.98,6.2,North,5.8,-,N/A,,Unknown,10,2012-10-30 16:30:00
4:00 AM,55.4,53.6,94,29.98,6.2,NNE,4.6,-,N/A,,Unknown,20,2012-10-30 17:00:00
4:30 AM,55.4,53.6,94,29.98,6.2,Calm,Calm,-,N/A,,Unknown,0,2012-10-30 17:30:00
5:00 AM,55,54,93,29.98,,Calm,Calm,,,,,,2012-10-30 18:00:00
5:00 AM,55.4,53.6,94,29.98,6.2,Calm,Calm,-,N/A,,Unknown,0,2012-10-30 18:00:00
5:30 AM,55.4,53.6,94,29.98,6.2,Calm,Calm,-,N/A,,Unknown,0,2012-10-30 18:30:00
6:00 AM,54,52,92,30.00,19,Calm,Calm,,,Fog,Patches of Fog,,2012-10-30 19:00:00
6:00 AM,53.6,51.8,94,29.98,6.2,Calm,Calm,-,N/A,Fog,Shallow Fog,0,2012-10-30 19:00:00
6:30 AM,53.6,51.8,94,30.01,-9999.0,Calm,Calm,-,N/A,,Clear,0,2012-10-30 19:30:00
7:00 AM,59.0,55.4,88,30.01,-9999.0,Calm,Calm,-,N/A,,Clear,0,2012-10-30 20:00:00
7:30 AM,64.4,53.6,68,30.01,-9999.0,NW,11.5,-,N/A,,Clear,310,2012-10-30 20:30:00
8:00 AM,65,53,55,30.02,,NW,10.4,,,,,310,2012-10-30 21:00:00
8:00 AM,64.4,51.8,64,30.01,-9999.0,NW,10.4,-,N/A,,Clear,310,2012-10-30 21:00:00
8:30 AM,68.0,51.8,56,30.01,-9999.0,NW,11.5,-,N/A,,Clear,310,2012-10-30 21:30:00
9:00 AM,71,53,41,30.03,19,WNW,12.7,,,,Haze,300,2012-10-30 22:00:00
9:00 AM,71.6,51.8,50,30.01,-9999.0,WNW,12.7,-,N/A,,Clear,300,2012-10-30 22:00:00
9:30 AM,73.4,51.8,47,30.01,-9999.0,NW,9.2,-,N/A,,Clear,310,2012-10-30 22:30:00
10:00 AM,77.0,50.0,39,30.01,-9999.0,NW,8.1,-,N/A,,Clear,310,2012-10-30 23:00:00
10:30 AM,77.0,51.8,41,29.98,-9999.0,West,6.9,-,N/A,,Clear,280,2012-10-30 23:30:00
11:00 AM,79,51,27,29.99,,West,4.6,,,,,280,2012-10-31 00:00:00
11:00 AM,78.8,51.8,39,29.98,-9999.0,West,4.6,-,N/A,,Clear,280,2012-10-31 00:00:00
11:30 AM,84.2,50.0,30,29.98,6.2,SSE,5.8,-,N/A,,Partly Cloudy,150,2012-10-31 00:30:00
12:00 PM,81,51,24,29.98,25,South,9.2,,,,Partly Cloudy,170,2012-10-31 01:00:00
12:00 PM,80.6,50.0,34,29.98,6.2,South,9.2,-,N/A,,Partly Cloudy,170,2012-10-31 01:00:00
12:30 PM,80.6,53.6,39,29.95,6.2,SE,10.4,-,N/A,,Partly Cloudy,130,2012-10-31 01:30:00
1:00 PM,80.6,48.2,32,29.95,6.2,ESE,11.5,-,N/A,,Partly Cloudy,120,2012-10-31 02:00:00
1:30 PM,80.6,50.0,34,29.95,6.2,SE,12.7,-,N/A,,Partly Cloudy,130,2012-10-31 02:30:00
2:00 PM,82,49,22,29.95,,SE,13.8,,,,,130,2012-10-31 03:00:00
2:00 PM,82.4,50.0,32,29.95,6.2,SE,13.8,-,N/A,,Partly Cloudy,130,2012-10-31 03:00:00
2:30 PM,80.6,50.0,34,29.92,6.2,SE,11.5,-,N/A,,Partly Cloudy,130,2012-10-31 03:30:00
3:00 PM,80.6,50.0,34,29.92,6.2,SE,12.7,-,N/A,,Partly Cloudy,130,2012-10-31 04:00:00
3:30 PM,80.6,48.2,32,29.92,6.2,ESE,11.5,-,N/A,,Unknown,120,2012-10-31 04:30:00
4:00 PM,80.6,48.2,32,29.89,6.2,ESE,10.4,-,N/A,,Partly Cloudy,110,2012-10-31 05:00:00
4:30 PM,80.6,51.8,37,29.89,6.2,East,12.7,-,N/A,,Partly Cloudy,100,2012-10-31 05:30:00
5:00 PM,79,54,32,29.91,,East,12.7,,,,,90,2012-10-31 06:00:00
5:00 PM,78.8,55.4,44,29.89,6.2,East,12.7,-,N/A,,Partly Cloudy,90,2012-10-31 06:00:00
5:30 PM,77.0,53.6,44,29.89,-9999.0,ENE,12.7,-,N/A,,Clear,60,2012-10-31 06:30:00
6:00 PM,76,52,32,29.91,,ENE,11.5,,,,,60,2012-10-31 07:00:00
6:00 PM,77.0,51.8,41,29.89,-9999.0,ENE,11.5,-,N/A,,Clear,60,2012-10-31 07:00:00
6:30 PM,75.2,53.6,47,29.92,-9999.0,ENE,9.2,-,N/A,,Clear,70,2012-10-31 07:30:00
7:00 PM,73.4,57.2,57,29.92,-9999.0,ENE,8.1,-,N/A,,Clear,60,2012-10-31 08:00:00
7:30 PM,71.6,59.0,64,29.92,-9999.0,ENE,8.1,-,N/A,,Clear,60,2012-10-31 08:30:00
8:00 PM,71,58,54,29.94,,ENE,9.2,,,,,60,2012-10-31 09:00:00
8:00 PM,71.6,57.2,60,29.92,-9999.0,ENE,9.2,-,N/A,,Clear,60,2012-10-31 09:00:00
8:30 PM,69.8,59.0,68,29.95,-9999.0,NE,8.1,-,N/A,,Clear,50,2012-10-31 09:30:00
9:00 PM,68.0,59.0,73,29.95,-9999.0,NE,6.9,-,N/A,,Clear,50,2012-10-31 10:00:00
9:30 PM,68.0,59.0,73,29.95,-9999.0,NE,5.8,-,N/A,,Clear,40,2012-10-31 10:30:00
10:00 PM,66.2,57.2,73,29.95,-9999.0,NE,6.9,-,N/A,,Clear,50,2012-10-31 11:00:00
10:30 PM,66.2,57.2,73,29.92,6.2,NE,4.6,-,N/A,,Unknown,40,2012-10-31 11:30:00
11:00 PM,63,56,73,29.94,,Calm,Calm,,,,,,2012-10-31 12:00:00
11:00 PM,62.6,57.2,82,29.92,6.2,Calm,Calm,-,N/A,,Unknown,0,2012-10-31 12:00:00